Time;durP1;ratioP1;P1;durP2;ratioP2;P2;SDS_P1;SDS_P2;PMS_P1;PMS_P2;Temp;Humidity;BMP_temperature;BMP_pressure;BME280_temperature;BME280_humidity;BME280_pressure;Samples;Min_cycle;Max_cycle;Signal;HPM_P1;HPM_P2
2023/07/15 00:03:46;;;;;;;3.63;1.45;;;;;;;;;;20913177;28;20049;-71
2023/07/15 00:13:47;;;;;;;3.30;1.42;;;;;;;;;;20912612;28;20045;-70
2023/07/15 00:23:55;;;;;;;6.80;3.95;;;;;;;;;;20911589;28;20059;-70
2023/07/15 00:33:56;;;;;;;4.82;1.77;;;;;;;;;;20912235;28;20073;-70
2023/07/15 00:44:00;;;;;;;4.03;0.90;;;;;;;;;;20911800;28;20117;-69
2023/07/15 00:54:03;;;;;;;1.98;0.95;;;;;;;;;;20914170;28;20044;-70
2023/07/15 01:04:05;;;;;;;2.88;0.70;;;;;;;;;;20925591;28;20455;-70
2023/07/15 01:14:06;;;;;;;1.08;0.85;;;;;;;;;;20924762;28;20058;-70
2023/07/15 01:24:07;;;;;;;2.75;0.88;;;;;;;;;;20923264;28;20060;-69
2023/07/15 01:34:08;;;;;;;1.63;0.95;;;;;;;;;;20923347;28;20059;-70
2023/07/15 01:44:10;;;;;;;2.65;1.10;;;;;;;;;;20922653;28;20171;-70
2023/07/15 01:54:11;;;;;;;2.38;0.80;;;;;;;;;;20921789;28;20490;-70
2023/07/15 02:04:12;;;;;;;2.15;0.98;;;;;;;;;;20921764;28;20513;-70
2023/07/15 02:14:13;;;;;;;1.77;0.82;;;;;;;;;;20920250;28;20453;-70
2023/07/15 02:24:14;;;;;;;4.68;0.60;;;;;;;;;;20918495;28;20053;-70
2023/07/15 02:34:16;;;;;;;2.08;0.80;;;;;;;;;;20918392;28;20397;-70
2023/07/15 02:44:17;;;;;;;2.30;0.93;;;;;;;;;;20917918;28;20053;-70
2023/07/15 02:54:18;;;;;;;1.60;1.02;;;;;;;;;;20915867;28;20037;-70
2023/07/15 03:04:19;;;;;;;4.47;2.47;;;;;;;;;;20915137;28;20047;-71
2023/07/15 03:14:20;;;;;;;3.75;0.98;;;;;;;;;;20915255;28;20045;-69
2023/07/15 03:24:24;;;;;;;3.92;1.10;;;;;;;;;;20913643;28;20063;-70
2023/07/15 03:34:26;;;;;;;2.25;0.90;;;;;;;;;;20914375;28;20056;-70
2023/07/15 03:44:27;;;;;;;2.38;0.90;;;;;;;;;;20914469;28;20055;-70
2023/07/15 03:54:28;;;;;;;1.40;0.80;;;;;;;;;;20914501;28;20371;-70
2023/07/15 04:04:29;;;;;;;1.80;0.75;;;;;;;;;;20914481;28;20486;-71
2023/07/15 04:14:30;;;;;;;4.43;0.80;;;;;;;;;;20913113;28;20482;-71
2023/07/15 04:24:31;;;;;;;3.10;1.20;;;;;;;;;;20911143;28;20075;-70
2023/07/15 04:34:32;;;;;;;1.33;0.70;;;;;;;;;;20924377;28;20037;-69
2023/07/15 04:44:34;;;;;;;2.00;1.00;;;;;;;;;;20927357;28;20099;-70
2023/07/15 04:54:35;;;;;;;2.67;0.77;;;;;;;;;;20926637;28;20076;-71
2023/07/15 05:04:36;;;;;;;1.45;0.90;;;;;;;;;;20925908;28;20375;-70
2023/07/15 05:14:37;;;;;;;1.88;0.70;;;;;;;;;;20923497;28;20053;-69
2023/07/15 05:24:38;;;;;;;2.83;1.60;;;;;;;;;;20922677;28;20068;-70
2023/07/15 05:34:39;;;;;;;3.25;0.80;;;;;;;;;;20923045;28;20049;-70
2023/07/15 05:44:41;;;;;;;2.63;0.50;;;;;;;;;;20921756;28;20056;-70
2023/07/15 05:54:42;;;;;;;1.58;0.70;;;;;;;;;;20920296;28;20047;-70
2023/07/15 06:04:43;;;;;;;2.30;0.68;;;;;;;;;;20919481;28;20132;-70
2023/07/15 06:14:44;;;;;;;2.10;1.60;;;;;;;;;;20919910;28;20053;-71
2023/07/15 06:24:46;;;;;;;4.05;2.75;;;;;;;;;;20918702;28;20132;-70
2023/07/15 06:34:47;;;;;;;0.77;0.60;;;;;;;;;;20918342;28;20070;-70
2023/07/15 06:44:48;;;;;;;1.38;0.60;;;;;;;;;;20917372;28;20120;-69
2023/07/15 06:54:52;;;;;;;1.45;0.73;;;;;;;;;;20914740;28;20563;-70
2023/07/15 07:04:53;;;;;;;3.63;0.68;;;;;;;;;;20916179;28;20045;-71
2023/07/15 07:14:54;;;;;;;1.00;0.47;;;;;;;;;;20914751;28;20180;-71
2023/07/15 07:24:56;;;;;;;1.98;0.60;;;;;;;;;;20915481;28;20387;-70
2023/07/15 07:34:58;;;;;;;1.45;0.93;;;;;;;;;;20913312;28;20132;-71
2023/07/15 07:44:59;;;;;;;1.75;0.50;;;;;;;;;;20914674;28;20080;-70
2023/07/15 07:55:01;;;;;;;1.85;0.50;;;;;;;;;;20913350;28;20045;-71
2023/07/15 08:05:04;;;;;;;0.30;0.30;;;;;;;;;;20919848;28;20037;-71
2023/07/15 08:15:05;;;;;;;0.47;0.30;;;;;;;;;;20929247;28;20584;-71
2023/07/15 08:25:07;;;;;;;1.27;0.43;;;;;;;;;;20927701;28;20079;-71
2023/07/15 08:35:08;;;;;;;1.40;0.57;;;;;;;;;;20927600;28;20076;-70
2023/07/15 08:45:09;;;;;;;1.00;0.30;;;;;;;;;;20927135;28;20352;-71
2023/07/15 08:55:11;;;;;;;2.55;0.50;;;;;;;;;;20926404;28;20467;-71
2023/07/15 09:05:12;;;;;;;0.57;0.22;;;;;;;;;;20923985;28;20037;-71
2023/07/15 09:15:13;;;;;;;1.30;0.45;;;;;;;;;;20923479;28;20053;-71
2023/07/15 09:25:14;;;;;;;3.83;0.40;;;;;;;;;;20922863;28;20052;-71
2023/07/15 09:35:16;;;;;;;0.90;0.40;;;;;;;;;;20921619;28;20088;-71
2023/07/15 09:45:33;;;;;;;0.63;0.20;;;;;;;;;;20921954;28;20053;-71
2023/07/15 09:55:36;;;;;;;1.08;0.40;;;;;;;;;;20920456;28;20074;-71
2023/07/15 10:05:37;;;;;;;0.98;0.30;;;;;;;;;;20919722;28;20134;-71
2023/07/15 10:15:38;;;;;;;0.95;0.30;;;;;;;;;;20919627;28;20505;-71
2023/07/15 10:25:43;;;;;;;1.33;0.38;;;;;;;;;;20917546;28;20053;-71
2023/07/15 10:35:44;;;;;;;2.58;0.30;;;;;;;;;;20917413;28;20084;-71
2023/07/15 10:45:48;;;;;;;0.88;0.30;;;;;;;;;;20917986;28;20395;-70
2023/07/15 10:56:02;;;;;;;0.60;0.22;;;;;;;;;;20916320;28;20044;-71
2023/07/15 11:06:03;;;;;;;2.58;0.50;;;;;;;;;;20914963;28;20099;-71
2023/07/15 11:16:05;;;;;;;3.95;0.98;;;;;;;;;;20915268;28;20053;-71
2023/07/15 11:26:10;;;;;;;2.47;0.85;;;;;;;;;;20913744;28;20145;-71
2023/07/15 11:36:11;;;;;;;1.15;0.50;;;;;;;;;;20912128;28;20041;-71
2023/07/15 11:46:14;;;;;;;0.82;0.30;;;;;;;;;;20912480;28;20063;-70
2023/07/15 11:56:31;;;;;;;1.20;0.80;;;;;;;;;;20912953;28;20048;-71
2023/07/15 12:06:32;;;;;;;2.53;2.05;;;;;;;;;;20913128;28;20375;-70
2023/07/15 12:16:35;;;;;;;0.50;0.40;;;;;;;;;;20912758;28;20495;-70
2023/07/15 12:26:36;;;;;;;0.93;0.45;;;;;;;;;;20911192;28;20053;-71
2023/07/15 12:36:37;;;;;;;0.85;0.63;;;;;;;;;;20912070;28;20155;-71
2023/07/15 12:46:38;;;;;;;1.50;0.90;;;;;;;;;;20911123;28;20037;-71
2023/07/15 12:56:39;;;;;;;1.15;0.80;;;;;;;;;;20923960;28;20060;-71
2023/07/15 13:06:40;;;;;;;1.70;1.08;;;;;;;;;;20924810;28;20063;-71
2023/07/15 13:16:41;;;;;;;2.53;1.15;;;;;;;;;;20924809;28;20060;-71
2023/07/15 13:26:43;;;;;;;2.70;1.10;;;;;;;;;;20922792;28;20049;-71
2023/07/15 13:46:41;;;;;;;3.05;1.50;;;;;;;;;;21068357;27;20490;-71
2023/07/15 13:56:42;;;;;;;1.42;1.08;;;;;;;;;;21068224;28;20076;-71
2023/07/15 14:06:46;;;;;;;2.85;1.15;;;;;;;;;;21067006;28;20055;-71
2023/07/15 14:16:47;;;;;;;1.35;0.90;;;;;;;;;;21066993;28;20051;-70
2023/07/15 14:26:48;;;;;;;1.55;0.88;;;;;;;;;;21065265;28;20084;-72
2023/07/15 14:36:49;;;;;;;1.60;0.90;;;;;;;;;;21064296;28;20083;-71
2023/07/15 14:46:51;;;;;;;2.05;0.73;;;;;;;;;;21065000;28;20083;-71
2023/07/15 14:56:52;;;;;;;1.23;0.60;;;;;;;;;;21014796;28;20079;-70
2023/07/15 15:06:53;;;;;;;0.90;0.80;;;;;;;;;;21007748;28;20095;-69
2023/07/15 15:16:55;;;;;;;5.35;3.92;;;;;;;;;;21006836;28;20502;-70
2023/07/15 15:26:59;;;;;;;1.20;0.85;;;;;;;;;;21006395;28;20116;-70
2023/07/15 15:37:00;;;;;;;3.30;0.95;;;;;;;;;;21005137;28;20056;-69
2023/07/15 15:47:01;;;;;;;1.70;1.00;;;;;;;;;;21004448;28;20418;-71
2023/07/15 15:57:02;;;;;;;2.35;0.82;;;;;;;;;;21002543;28;20037;-72
2023/07/15 16:07:03;;;;;;;1.52;0.90;;;;;;;;;;21001877;28;20123;-70
2023/07/15 16:17:04;;;;;;;2.65;0.93;;;;;;;;;;21003107;28;20049;-70
2023/07/15 16:27:05;;;;;;;1.70;1.05;;;;;;;;;;21001066;28;20040;-70
2023/07/15 16:37:07;;;;;;;0.75;0.68;;;;;;;;;;20998477;28;20056;-71
2023/07/15 16:47:08;;;;;;;2.97;1.05;;;;;;;;;;20999577;28;20120;-71
2023/07/15 16:57:09;;;;;;;1.20;0.70;;;;;;;;;;20998737;28;20119;-71
2023/07/15 17:07:10;;;;;;;2.10;0.70;;;;;;;;;;20997819;28;20124;-71
2023/07/15 17:17:11;;;;;;;8.90;1.00;;;;;;;;;;20997200;28;20397;-70
2023/07/15 17:27:12;;;;;;;0.85;0.73;;;;;;;;;;20996814;28;20040;-72
2023/07/15 17:37:13;;;;;;;1.25;0.70;;;;;;;;;;20995880;28;20462;-70
2023/07/15 17:47:14;;;;;;;2.28;0.93;;;;;;;;;;20996357;28;20213;-71
2023/07/15 17:57:15;;;;;;;1.13;0.90;;;;;;;;;;20996234;28;20070;-68
2023/07/15 18:07:19;;;;;;;2.10;1.00;;;;;;;;;;20995410;28;20052;-67
2023/07/15 18:17:20;;;;;;;2.10;0.68;;;;;;;;;;20994833;28;20076;-66
2023/07/15 18:27:21;;;;;;;0.98;0.80;;;;;;;;;;20999415;28;20119;-68
2023/07/15 18:37:22;;;;;;;2.05;1.00;;;;;;;;;;21008074;28;20052;-68
2023/07/15 18:47:24;;;;;;;2.20;1.00;;;;;;;;;;21009053;28;20466;-67
2023/07/15 18:57:25;;;;;;;1.20;0.90;;;;;;;;;;21008144;28;20047;-68
2023/07/15 19:07:29;;;;;;;1.60;0.60;;;;;;;;;;21007585;28;20044;-68
2023/07/15 19:17:30;;;;;;;0.65;0.60;;;;;;;;;;21006362;28;20370;-68
2023/07/15 19:27:31;;;;;;;3.38;1.15;;;;;;;;;;21005718;28;20438;-68
2023/07/15 19:37:33;;;;;;;2.40;1.15;;;;;;;;;;21002503;28;20048;-67
2023/07/15 19:47:35;;;;;;;1.58;0.95;;;;;;;;;;21002996;28;20131;-67
2023/07/15 19:57:36;;;;;;;2.33;1.30;;;;;;;;;;21001945;28;20102;-67
2023/07/15 20:07:37;;;;;;;2.05;1.50;;;;;;;;;;21002333;28;20075;-67
2023/07/15 20:17:38;;;;;;;1.40;1.15;;;;;;;;;;21001707;28;20127;-67
2023/07/15 20:27:39;;;;;;;2.78;1.52;;;;;;;;;;21000984;28;20131;-67
2023/07/15 20:37:40;;;;;;;3.45;1.45;;;;;;;;;;20998881;28;20144;-67
2023/07/15 20:47:42;;;;;;;5.93;1.83;;;;;;;;;;20998934;28;20052;-67
2023/07/15 20:57:44;;;;;;;2.10;1.33;;;;;;;;;;20998506;28;20554;-66
2023/07/15 21:07:45;;;;;;;4.63;1.98;;;;;;;;;;20998451;28;20559;-68
2023/07/15 21:17:46;;;;;;;4.50;2.63;;;;;;;;;;20997687;28;20504;-68
2023/07/15 21:27:47;;;;;;;2.58;1.73;;;;;;;;;;20997378;28;20412;-67
2023/07/15 21:37:48;;;;;;;2.30;1.67;;;;;;;;;;20995232;28;20053;-68
2023/07/15 21:47:49;;;;;;;4.80;1.90;;;;;;;;;;20996383;28;20060;-67
2023/07/15 21:57:50;;;;;;;4.43;2.13;;;;;;;;;;20995613;28;20041;-68
2023/07/15 22:07:51;;;;;;;4.20;1.63;;;;;;;;;;21010662;28;20041;-67
2023/07/15 22:17:52;;;;;;;3.60;1.48;;;;;;;;;;21011055;28;20482;-67
2023/07/15 22:27:53;;;;;;;2.95;1.30;;;;;;;;;;21009077;28;20135;-67
2023/07/15 22:37:54;;;;;;;3.20;1.40;;;;;;;;;;21009066;28;20052;-67
2023/07/15 22:47:56;;;;;;;2.45;1.17;;;;;;;;;;21008955;28;20040;-67
2023/07/15 22:57:57;;;;;;;2.97;1.42;;;;;;;;;;21006674;28;20182;-66
2023/07/15 23:07:58;;;;;;;1.65;1.23;;;;;;;;;;21007660;28;20051;-66
2023/07/15 23:17:59;;;;;;;2.13;1.20;;;;;;;;;;21006137;28;20072;-67
2023/07/15 23:28:00;;;;;;;1.90;0.88;;;;;;;;;;21005153;28;20079;-67
2023/07/15 23:38:01;;;;;;;3.75;1.60;;;;;;;;;;21005122;28;20108;-66
2023/07/15 23:48:02;;;;;;;3.38;1.10;;;;;;;;;;21004981;28;20047;-67
2023/07/15 23:58:03;;;;;;;2.83;1.65;;;;;;;;;;21004261;28;20040;-67
